Time;durP1;ratioP1;P1;durP2;ratioP2;P2;SDS_P1;SDS_P2;PMS_P1;PMS_P2;Temp;Humidity;BMP_temperature;BMP_pressure;BME280_temperature;BME280_humidity;BME280_pressure;Samples;Min_cycle;Max_cycle;Signal;HPM_P1;HPM_P2
2021/06/30 00:01:55;;;;;;;1.80;1.70;;;17.90;99.90;;;;;;5053967;28;20284;-56
2021/06/30 00:04:20;;;;;;;1.80;1.67;;;17.90;99.90;;;;;;5056327;28;20627;-57
2021/06/30 00:06:47;;;;;;;1.80;1.50;;;18.00;99.90;;;;;;5054005;28;20174;-51
2021/06/30 00:09:15;;;;;;;2.70;1.90;;;17.90;99.90;;;;;;5053846;28;20244;-54
2021/06/30 00:11:40;;;;;;;1.57;1.47;;;18.10;99.90;;;;;;5053866;28;20778;-52
2021/06/30 00:14:06;;;;;;;1.67;1.10;;;18.20;99.90;;;;;;5053699;28;20431;-54
2021/06/30 00:16:32;;;;;;;1.67;1.57;;;18.20;99.90;;;;;;5053597;28;20179;-53
2021/06/30 00:19:03;;;;;;;1.57;1.47;;;18.30;99.90;;;;;;5053676;28;20206;-56
2021/06/30 00:21:28;;;;;;;2.13;1.00;;;18.40;99.90;;;;;;5053451;28;20463;-56
2021/06/30 00:23:55;;;;;;;1.50;1.40;;;18.40;99.90;;;;;;5044986;28;20417;-56
2021/06/30 00:26:20;;;;;;;1.50;1.40;;;18.50;99.90;;;;;;5050830;28;20518;-55
2021/06/30 00:28:46;;;;;;;1.43;1.13;;;18.60;99.90;;;;;;5053738;28;20427;-57
2021/06/30 00:31:12;;;;;;;4.40;2.17;;;18.70;99.90;;;;;;5053097;28;20187;-55
2021/06/30 00:33:37;;;;;;;3.27;1.73;;;18.70;99.90;;;;;;5053523;28;20174;-57
2021/06/30 00:36:03;;;;;;;1.40;1.30;;;18.70;99.90;;;;;;5053338;28;20175;-55
2021/06/30 00:38:29;;;;;;;1.67;1.57;;;18.80;99.90;;;;;;5053183;28;20201;-56
2021/06/30 00:40:54;;;;;;;2.33;1.63;;;18.90;99.90;;;;;;5053297;28;20429;-55
2021/06/30 00:43:20;;;;;;;3.33;1.60;;;18.90;99.90;;;;;;5053382;28;20240;-56
2021/06/30 00:45:48;;;;;;;1.57;1.47;;;18.90;99.90;;;;;;5053035;28;20194;-54
2021/06/30 00:48:14;;;;;;;1.40;1.30;;;18.90;99.90;;;;;;5053292;28;20171;-57
2021/06/30 00:50:39;;;;;;;2.77;0.90;;;18.80;99.90;;;;;;5053139;28;20528;-56
2021/06/30 00:53:05;;;;;;;1.57;1.47;;;18.80;99.90;;;;;;5053110;28;20308;-53
2021/06/30 00:55:31;;;;;;;1.30;1.20;;;18.90;99.90;;;;;;5055145;28;20178;-56
2021/06/30 00:57:58;;;;;;;1.67;1.27;;;18.90;99.90;;;;;;5057458;28;20662;-55
2021/06/30 01:00:23;;;;;;;1.70;1.30;;;18.90;99.90;;;;;;5057028;28;20660;-54
2021/06/30 01:02:49;;;;;;;1.30;1.20;;;18.90;99.90;;;;;;5057412;28;20499;-55
2021/06/30 01:05:15;;;;;;;1.63;1.27;;;18.80;99.90;;;;;;5057216;28;20192;-57
2021/06/30 01:07:41;;;;;;;2.13;1.70;;;18.80;99.90;;;;;;5057066;28;20240;-57
2021/06/30 01:10:07;;;;;;;2.03;1.60;;;18.70;99.90;;;;;;5056983;28;20907;-56
2021/06/30 01:12:33;;;;;;;1.37;1.27;;;18.60;99.90;;;;;;5057150;28;20189;-56
2021/06/30 01:15:07;;;;;;;3.20;1.70;;;18.70;99.90;;;;;;5056982;28;20919;-55
2021/06/30 01:17:33;;;;;;;1.27;1.17;;;18.50;99.90;;;;;;5056841;28;20159;-54
2021/06/30 01:19:58;;;;;;;5.13;1.67;;;18.50;99.90;;;;;;5056773;28;20464;-55
2021/06/30 01:22:25;;;;;;;1.70;1.50;;;18.50;99.90;;;;;;5057115;28;20181;-56
2021/06/30 01:24:52;;;;;;;1.53;1.43;;;18.30;99.90;;;;;;5039713;28;20174;-52
2021/06/30 01:27:19;;;;;;;1.53;1.33;;;18.30;99.90;;;;;;5056763;28;20409;-51
2021/06/30 01:29:46;;;;;;;1.70;1.30;;;18.20;99.90;;;;;;5056562;28;20427;-51
2021/06/30 01:32:13;;;;;;;1.73;1.10;;;18.10;99.90;;;;;;5056826;28;20437;-53
2021/06/30 01:34:38;;;;;;;1.47;1.37;;;17.90;99.90;;;;;;5056783;28;20451;-55
2021/06/30 01:37:04;;;;;;;1.73;1.30;;;17.80;99.90;;;;;;5056762;28;20444;-55
2021/06/30 01:39:30;;;;;;;1.90;1.27;;;17.70;99.90;;;;;;5038643;28;20293;-56
2021/06/30 01:41:56;;;;;;;2.17;1.20;;;17.60;99.90;;;;;;5056438;28;20681;-54
2021/06/30 01:44:22;;;;;;;1.30;1.10;;;17.70;99.90;;;;;;5056570;28;20492;-55
2021/06/30 01:46:47;;;;;;;1.30;0.80;;;17.70;99.90;;;;;;5056237;28;20218;-56
2021/06/30 01:49:13;;;;;;;0.80;0.80;;;17.60;99.90;;;;;;5056669;28;20623;-56
2021/06/30 01:51:39;;;;;;;1.87;0.90;;;17.60;99.90;;;;;;5056682;28;20283;-55
2021/06/30 01:54:13;;;;;;;1.03;0.90;;;17.60;99.90;;;;;;5056368;28;20297;-55
2021/06/30 01:56:39;;;;;;;1.30;1.00;;;17.50;99.90;;;;;;5056316;28;20895;-56
2021/06/30 01:59:07;;;;;;;2.30;1.10;;;17.50;99.90;;;;;;5056122;28;20450;-56
2021/06/30 02:01:33;;;;;;;4.90;1.60;;;17.50;99.90;;;;;;5056200;28;20447;-56
2021/06/30 02:04:00;;;;;;;1.07;1.00;;;17.50;99.90;;;;;;5056300;28;20401;-53
2021/06/30 02:06:27;;;;;;;1.87;1.00;;;17.50;99.90;;;;;;5055933;28;20170;-53
2021/06/30 02:08:56;;;;;;;1.00;0.70;;;17.40;99.90;;;;;;5058809;28;20807;-56
2021/06/30 02:11:23;;;;;;;2.43;1.00;;;17.30;99.90;;;;;;5056096;28;20455;-55
2021/06/30 02:13:48;;;;;;;0.90;0.70;;;17.40;99.90;;;;;;5056239;28;20443;-55
2021/06/30 02:16:14;;;;;;;1.20;0.87;;;17.20;99.90;;;;;;5055442;28;20455;-56
2021/06/30 02:18:40;;;;;;;0.97;0.87;;;17.10;99.90;;;;;;5055645;28;20225;-56
2021/06/30 02:21:06;;;;;;;0.90;0.80;;;16.90;99.90;;;;;;5055321;28;20238;-56
2021/06/30 02:23:32;;;;;;;1.00;0.80;;;16.80;99.90;;;;;;5055569;28;20692;-56
2021/06/30 02:25:58;;;;;;;2.63;0.97;;;16.90;99.90;;;;;;5055836;28;20436;-53
2021/06/30 02:28:23;;;;;;;3.23;0.90;;;16.90;99.90;;;;;;5057437;28;20177;-52
2021/06/30 02:30:50;;;;;;;0.80;0.70;;;17.00;99.90;;;;;;5058543;28;20534;-53
2021/06/30 02:33:15;;;;;;;1.43;0.80;;;16.90;99.90;;;;;;5056982;28;20530;-54
2021/06/30 02:35:41;;;;;;;1.80;0.80;;;16.90;99.90;;;;;;5057152;28;20409;-52
2021/06/30 02:38:08;;;;;;;1.10;0.90;;;16.70;99.90;;;;;;5056205;28;20702;-52
2021/06/30 02:40:34;;;;;;;1.80;0.70;;;16.50;99.90;;;;;;5056121;28;20429;-55
2021/06/30 02:43:01;;;;;;;1.07;0.80;;;16.50;99.90;;;;;;5055437;28;20477;-56
2021/06/30 02:45:27;;;;;;;0.80;0.60;;;16.70;99.90;;;;;;5054847;28;20884;-56
2021/06/30 02:47:53;;;;;;;0.90;0.60;;;16.60;99.90;;;;;;5055115;28;20446;-56
2021/06/30 02:50:20;;;;;;;0.80;0.50;;;16.60;99.90;;;;;;5055003;28;20907;-52
2021/06/30 02:52:48;;;;;;;1.10;0.90;;;16.60;99.90;;;;;;5055216;28;20179;-55
2021/06/30 02:55:14;;;;;;;1.20;0.60;;;16.60;99.90;;;;;;5055157;28;20437;-52
2021/06/30 02:57:41;;;;;;;1.60;0.60;;;16.50;99.90;;;;;;5055217;28;20452;-52
2021/06/30 03:00:16;;;;;;;0.70;0.50;;;16.50;99.90;;;;;;5054451;28;20415;-52
2021/06/30 03:02:42;;;;;;;0.80;0.60;;;16.50;99.90;;;;;;5055004;28;20424;-52
2021/06/30 03:05:08;;;;;;;1.40;0.70;;;16.40;99.90;;;;;;5054911;28;20442;-52
2021/06/30 03:07:34;;;;;;;0.80;0.50;;;16.40;99.90;;;;;;5054858;28;20170;-54
2021/06/30 03:10:00;;;;;;;1.47;0.60;;;16.50;99.90;;;;;;5054824;28;20407;-53
2021/06/30 03:12:26;;;;;;;1.10;0.70;;;16.60;99.90;;;;;;5054649;28;20227;-56
2021/06/30 03:14:51;;;;;;;1.43;0.60;;;16.50;99.90;;;;;;5054179;28;20394;-53
2021/06/30 03:17:17;;;;;;;0.70;0.50;;;16.20;99.90;;;;;;5045396;28;20178;-52
2021/06/30 03:19:43;;;;;;;0.70;0.50;;;16.20;99.90;;;;;;5034442;28;20233;-53
2021/06/30 03:22:08;;;;;;;1.10;0.60;;;16.20;99.90;;;;;;5073192;23;20227;-50
2021/06/30 03:24:34;;;;;;;0.70;0.50;;;16.10;99.90;;;;;;5054511;28;20216;-50
2021/06/30 03:27:00;;;;;;;1.20;0.90;;;16.30;99.90;;;;;;5054491;28;20209;-51
2021/06/30 03:29:26;;;;;;;0.87;0.70;;;16.20;99.90;;;;;;5054182;28;20172;-48
2021/06/30 03:31:52;;;;;;;1.00;0.60;;;16.20;99.90;;;;;;5053829;28;20442;-53
2021/06/30 03:34:18;;;;;;;0.80;0.60;;;16.00;99.90;;;;;;5054361;28;20178;-52
2021/06/30 03:36:44;;;;;;;0.80;0.67;;;16.00;99.90;;;;;;5053896;28;20411;-53
2021/06/30 03:39:09;;;;;;;1.20;0.60;;;16.10;99.90;;;;;;5053887;28;20482;-51
2021/06/30 03:41:35;;;;;;;0.80;0.70;;;16.10;99.90;;;;;;5054113;28;20192;-53
2021/06/30 03:44:00;;;;;;;1.17;0.50;;;16.00;99.90;;;;;;5051795;28;20170;-49
2021/06/30 03:46:26;;;;;;;5.27;0.77;;;16.00;99.90;;;;;;5053801;28;20182;-50
2021/06/30 03:48:52;;;;;;;1.57;0.90;;;16.10;99.90;;;;;;5053805;28;20253;-52
2021/06/30 03:51:17;;;;;;;0.93;0.83;;;16.10;99.90;;;;;;5054320;28;20658;-50
2021/06/30 03:53:43;;;;;;;1.70;0.60;;;16.20;99.90;;;;;;5053646;28;20179;-54
2021/06/30 03:56:08;;;;;;;0.90;0.50;;;16.20;99.90;;;;;;5053799;28;20176;-51
2021/06/30 03:58:34;;;;;;;1.07;0.70;;;16.10;99.90;;;;;;5053581;28;20204;-51
2021/06/30 04:01:00;;;;;;;0.83;0.70;;;16.20;99.90;;;;;;5053714;28;20191;-52
2021/06/30 04:03:25;;;;;;;0.80;0.80;;;16.20;99.90;;;;;;5053938;28;20176;-48
2021/06/30 04:05:51;;;;;;;0.77;0.60;;;16.00;99.90;;;;;;5053789;28;20173;-52
2021/06/30 04:08:17;;;;;;;1.57;0.57;;;16.10;99.90;;;;;;5055900;28;20235;-48
2021/06/30 04:10:43;;;;;;;1.63;0.60;;;16.20;99.90;;;;;;5053375;28;20248;-49
2021/06/30 04:13:09;;;;;;;0.90;0.57;;;16.30;99.90;;;;;;5053612;28;20175;-50
2021/06/30 04:15:35;;;;;;;0.93;0.60;;;16.30;99.90;;;;;;5053194;28;20425;-48
2021/06/30 04:18:10;;;;;;;0.80;0.70;;;16.30;99.90;;;;;;5035366;28;20414;-52
2021/06/30 04:20:36;;;;;;;2.23;0.70;;;16.20;99.90;;;;;;5053333;28;20220;-48
2021/06/30 04:23:01;;;;;;;1.20;0.60;;;16.10;99.90;;;;;;5053586;28;20387;-54
2021/06/30 04:25:27;;;;;;;1.07;0.63;;;15.90;99.90;;;;;;5053589;28;20170;-49
2021/06/30 04:27:53;;;;;;;2.97;0.77;;;16.00;99.90;;;;;;5053477;28;20164;-52
2021/06/30 04:30:18;;;;;;;1.17;0.60;;;16.10;99.90;;;;;;5052670;28;20526;-49
2021/06/30 04:32:44;;;;;;;0.80;0.70;;;16.30;99.90;;;;;;5053476;28;20169;-50
2021/06/30 04:35:10;;;;;;;2.33;0.57;;;16.50;99.90;;;;;;5053180;28;20177;-51
2021/06/30 04:37:36;;;;;;;0.90;0.60;;;16.70;99.90;;;;;;5052895;28;20201;-51
2021/06/30 04:40:04;;;;;;;2.60;0.80;;;16.60;99.90;;;;;;5053277;28;20227;-54
2021/06/30 04:42:30;;;;;;;0.90;0.70;;;16.80;99.90;;;;;;5053134;28;20197;-48
2021/06/30 04:44:55;;;;;;;0.83;0.63;;;16.80;99.90;;;;;;5052597;28;20414;-52
2021/06/30 04:47:21;;;;;;;1.50;0.73;;;16.60;99.90;;;;;;5052901;28;20641;-51
2021/06/30 04:49:47;;;;;;;3.73;0.93;;;16.70;99.90;;;;;;5052823;28;20223;-50
2021/06/30 04:52:12;;;;;;;1.83;0.70;;;16.60;99.90;;;;;;5052785;28;20189;-52
2021/06/30 04:54:38;;;;;;;0.87;0.70;;;16.50;99.90;;;;;;5053739;28;20171;-51
2021/06/30 04:57:04;;;;;;;1.00;0.70;;;16.80;99.90;;;;;;5053113;28;20630;-50
2021/06/30 04:59:29;;;;;;;0.80;0.60;;;16.90;99.90;;;;;;5052648;28;20670;-49
2021/06/30 05:01:55;;;;;;;1.33;0.97;;;17.00;99.90;;;;;;5053088;28;20283;-49
2021/06/30 05:04:21;;;;;;;1.63;0.60;;;17.10;99.90;;;;;;5052759;28;20246;-49
2021/06/30 05:06:47;;;;;;;0.90;0.70;;;17.10;99.90;;;;;;5052650;28;20165;-52
2021/06/30 05:09:14;;;;;;;0.70;0.50;;;17.00;99.90;;;;;;5052674;28;20414;-51
2021/06/30 05:11:40;;;;;;;0.80;0.60;;;16.60;99.90;;;;;;5052555;28;20879;-53
2021/06/30 05:14:05;;;;;;;0.70;0.50;;;16.90;99.90;;;;;;5052504;28;20507;-52
2021/06/30 05:16:31;;;;;;;1.63;0.70;;;16.90;99.90;;;;;;5052572;28;20495;-50
2021/06/30 05:18:56;;;;;;;0.87;0.67;;;16.90;99.90;;;;;;5052393;28;20196;-51
2021/06/30 05:21:22;;;;;;;1.43;0.77;;;16.90;99.90;;;;;;5052538;28;20203;-51
2021/06/30 05:23:49;;;;;;;1.90;0.87;;;16.80;99.90;;;;;;5052564;28;20174;-51
2021/06/30 05:26:15;;;;;;;1.73;0.80;;;17.00;99.90;;;;;;5052622;28;20401;-48
2021/06/30 05:28:41;;;;;;;1.27;0.70;;;17.10;99.90;;;;;;5052687;28;20414;-57
2021/06/30 05:31:06;;;;;;;1.73;0.80;;;17.20;99.90;;;;;;5052396;28;20195;-47
2021/06/30 05:33:32;;;;;;;2.10;0.70;;;17.40;99.90;;;;;;5052319;28;20169;-55
2021/06/30 05:35:57;;;;;;;1.40;0.93;;;17.50;99.90;;;;;;5052375;28;20174;-54
2021/06/30 05:38:24;;;;;;;1.57;0.70;;;17.70;99.90;;;;;;5051437;28;20197;-49
2021/06/30 05:40:50;;;;;;;1.80;0.63;;;17.40;99.90;;;;;;5052828;28;20190;-51
2021/06/30 05:43:16;;;;;;;0.90;0.67;;;17.20;99.90;;;;;;5056117;28;20404;-53
2021/06/30 05:45:43;;;;;;;3.23;0.80;;;17.30;99.90;;;;;;5055764;28;20494;-50
2021/06/30 05:48:08;;;;;;;1.33;0.80;;;17.40;99.90;;;;;;5056327;28;20792;-53
2021/06/30 05:50:34;;;;;;;2.00;1.33;;;17.30;99.90;;;;;;5056192;28;20522;-49
2021/06/30 05:53:01;;;;;;;3.70;1.30;;;17.30;99.90;;;;;;5056500;28;20283;-50
2021/06/30 05:55:27;;;;;;;2.00;0.83;;;17.20;99.90;;;;;;5056007;28;20457;-50
2021/06/30 05:57:52;;;;;;;1.47;0.80;;;17.00;99.90;;;;;;5056120;28;20416;-53
2021/06/30 06:00:20;;;;;;;1.07;0.70;;;17.10;99.90;;;;;;5056032;28;20408;-50
2021/06/30 06:02:50;;;;;;;1.60;0.80;;;17.10;99.90;;;;;;5071533;28;20194;-52
2021/06/30 06:05:16;;;;;;;3.23;1.00;;;17.10;99.90;;;;;;5076414;28;20464;-53
2021/06/30 06:07:42;;;;;;;0.80;0.80;;;17.30;99.90;;;;;;5075631;28;20412;-55
2021/06/30 06:10:10;;;;;;;1.00;0.60;;;17.20;99.90;;;;;;5075501;28;20415;-48
2021/06/30 06:12:36;;;;;;;1.27;0.80;;;17.30;99.90;;;;;;5075835;28;20433;-50
2021/06/30 06:15:04;;;;;;;2.03;0.80;;;17.60;99.90;;;;;;5062489;28;20436;-53
2021/06/30 06:17:30;;;;;;;0.97;0.70;;;17.70;99.90;;;;;;5055736;28;20480;-53
2021/06/30 06:19:55;;;;;;;0.70;0.60;;;17.90;99.90;;;;;;5055516;28;20471;-54
2021/06/30 06:22:21;;;;;;;1.77;0.80;;;18.10;99.90;;;;;;5055177;28;20213;-50
2021/06/30 06:24:46;;;;;;;1.23;0.80;;;18.40;99.90;;;;;;5055531;28;20688;-50
2021/06/30 06:27:12;;;;;;;1.60;0.77;;;18.30;99.90;;;;;;5055811;28;20174;-50
2021/06/30 06:29:39;;;;;;;1.00;0.60;;;18.40;99.90;;;;;;5055159;28;20228;-54
2021/06/30 06:32:05;;;;;;;0.97;0.70;;;18.50;99.90;;;;;;5055343;28;20190;-53
2021/06/30 06:34:31;;;;;;;2.93;0.80;;;18.60;99.90;;;;;;5055247;28;20504;-49
2021/06/30 06:37:02;;;;;;;1.63;0.70;;;18.80;99.90;;;;;;5055151;28;20496;-54
2021/06/30 06:39:28;;;;;;;0.90;0.60;;;18.80;99.90;;;;;;5054997;28;20218;-51
2021/06/30 06:41:55;;;;;;;1.83;0.70;;;19.00;99.90;;;;;;5054953;28;20425;-50
2021/06/30 06:44:21;;;;;;;1.43;0.90;;;19.10;99.90;;;;;;5055092;28;20420;-52
2021/06/30 06:46:47;;;;;;;1.20;0.70;;;18.90;99.90;;;;;;5054880;28;20401;-54
2021/06/30 06:49:13;;;;;;;2.10;0.60;;;19.00;99.90;;;;;;5055278;28;20409;-54
2021/06/30 06:51:39;;;;;;;1.80;0.70;;;19.00;99.90;;;;;;5055060;28;20429;-53
2021/06/30 06:54:06;;;;;;;0.93;0.63;;;18.90;99.90;;;;;;5055209;28;20198;-48
2021/06/30 06:56:32;;;;;;;0.80;0.57;;;19.10;99.90;;;;;;5055022;28;20405;-51
2021/06/30 06:58:58;;;;;;;1.47;0.67;;;18.90;99.90;;;;;;5055013;28;20453;-56
2021/06/30 07:01:24;;;;;;;2.20;0.70;;;19.10;99.90;;;;;;5054785;28;20482;-54
2021/06/30 07:03:50;;;;;;;1.20;0.83;;;18.80;99.90;;;;;;5054896;28;20171;-54
2021/06/30 07:06:16;;;;;;;3.53;1.10;;;18.80;99.90;;;;;;5054615;28;20409;-54
2021/06/30 07:08:43;;;;;;;2.97;1.13;;;19.10;99.90;;;;;;5054662;28;20409;-51
2021/06/30 07:11:09;;;;;;;1.23;1.10;;;19.20;99.90;;;;;;5054532;28;20425;-54
2021/06/30 07:13:35;;;;;;;1.97;0.70;;;19.20;99.90;;;;;;5054522;28;20413;-56
2021/06/30 07:16:03;;;;;;;1.77;0.70;;;19.10;99.90;;;;;;5054145;28;20408;-50
2021/06/30 07:18:29;;;;;;;1.93;0.70;;;19.10;99.90;;;;;;5054612;28;20453;-54
2021/06/30 07:20:55;;;;;;;0.97;0.80;;;19.10;99.90;;;;;;5054240;28;20452;-53
2021/06/30 07:23:20;;;;;;;1.77;0.70;;;19.30;99.90;;;;;;5054562;28;20236;-53
2021/06/30 07:25:46;;;;;;;0.70;0.70;;;19.30;99.90;;;;;;5054300;28;20171;-53
2021/06/30 07:28:12;;;;;;;1.53;0.70;;;19.50;99.90;;;;;;5053766;28;20224;-54
2021/06/30 07:30:38;;;;;;;1.43;0.60;;;19.40;99.90;;;;;;5054074;28;20222;-52
2021/06/30 07:33:04;;;;;;;1.43;0.77;;;19.40;99.90;;;;;;5054220;28;20272;-55
2021/06/30 07:35:30;;;;;;;1.10;0.70;;;19.40;99.90;;;;;;5054449;28;20186;-55
2021/06/30 07:37:55;;;;;;;1.53;0.60;;;19.50;99.90;;;;;;5054249;28;20409;-54
2021/06/30 07:40:21;;;;;;;0.80;0.60;;;19.70;99.90;;;;;;5053800;28;20183;-55
2021/06/30 07:42:46;;;;;;;11.83;1.27;;;19.60;99.90;;;;;;5054226;28;20183;-54
2021/06/30 07:45:12;;;;;;;1.87;0.70;;;19.80;99.90;;;;;;5053805;28;20167;-56
2021/06/30 07:47:38;;;;;;;1.73;0.60;;;20.00;99.90;;;;;;5054251;28;20178;-56
2021/06/30 07:50:06;;;;;;;1.00;0.60;;;20.30;99.90;;;;;;5053613;28;20416;-53
2021/06/30 07:52:32;;;;;;;0.93;0.53;;;20.10;99.90;;;;;;5053667;28;20281;-52
2021/06/30 07:54:58;;;;;;;0.70;0.50;;;20.10;99.90;;;;;;5056370;28;20441;-55
2021/06/30 07:57:23;;;;;;;0.70;0.47;;;20.50;99.90;;;;;;5035898;28;20174;-53
2021/06/30 07:59:49;;;;;;;0.87;0.60;;;20.20;99.90;;;;;;5053581;28;20210;-52
2021/06/30 08:02:15;;;;;;;1.57;0.50;;;20.10;99.90;;;;;;5053612;28;20198;-53
2021/06/30 08:04:40;;;;;;;2.30;0.53;;;20.60;99.90;;;;;;5053410;28;20216;-51
2021/06/30 08:07:06;;;;;;;1.93;0.70;;;20.90;99.90;;;;;;5053797;28;20253;-54
2021/06/30 08:09:33;;;;;;;3.07;0.87;;;21.20;99.90;;;;;;5053562;28;20181;-54
2021/06/30 08:12:01;;;;;;;1.10;0.80;;;21.30;99.90;;;;;;5052753;28;20300;-54
2021/06/30 08:14:27;;;;;;;1.17;0.60;;;21.50;99.90;;;;;;5053117;28;20420;-55
2021/06/30 08:16:53;;;;;;;2.07;0.70;;;21.20;99.90;;;;;;5053812;28;20918;-52
2021/06/30 08:19:19;;;;;;;0.90;0.50;;;21.10;99.90;;;;;;5053319;28;20460;-50
2021/06/30 08:21:44;;;;;;;0.80;0.50;;;21.00;99.90;;;;;;5053542;28;20202;-54
2021/06/30 08:24:10;;;;;;;0.80;0.50;;;20.60;99.90;;;;;;5053545;28;20202;-49
2021/06/30 08:26:36;;;;;;;0.70;0.50;;;20.50;99.90;;;;;;5054444;28;20257;-53
2021/06/30 08:29:02;;;;;;;0.80;0.50;;;20.40;99.90;;;;;;5053800;28;20174;-55
2021/06/30 08:31:28;;;;;;;0.93;0.50;;;20.10;99.90;;;;;;5052645;28;20199;-53
2021/06/30 08:33:54;;;;;;;0.70;0.50;;;20.20;99.90;;;;;;5052934;28;20496;-54
2021/06/30 08:36:19;;;;;;;1.17;0.80;;;19.90;99.90;;;;;;5053425;28;20178;-56
2021/06/30 08:38:45;;;;;;;0.80;0.60;;;20.00;99.90;;;;;;5052943;28;20256;-51
2021/06/30 08:41:11;;;;;;;0.80;0.50;;;20.00;99.90;;;;;;5052960;28;20195;-52
2021/06/30 08:43:36;;;;;;;0.80;0.67;;;20.20;99.90;;;;;;5053125;28;20198;-54
2021/06/30 08:46:03;;;;;;;1.10;0.50;;;20.20;99.90;;;;;;5053019;28;20186;-52
2021/06/30 08:48:29;;;;;;;1.23;0.60;;;20.00;99.90;;;;;;5053217;28;20545;-55
2021/06/30 08:50:57;;;;;;;1.43;0.60;;;20.20;99.90;;;;;;5052986;28;20802;-52
2021/06/30 08:53:25;;;;;;;0.90;0.60;;;20.20;99.90;;;;;;5054050;28;20411;-53
2021/06/30 08:55:51;;;;;;;0.70;0.50;;;20.10;99.90;;;;;;5052898;28;20402;-53
2021/06/30 08:58:17;;;;;;;1.00;0.70;;;19.70;99.90;;;;;;5052683;28;20459;-52
2021/06/30 09:00:43;;;;;;;0.90;0.60;;;19.80;99.90;;;;;;5052609;28;20244;-51
2021/06/30 09:03:15;;;;;;;1.30;0.60;;;19.90;99.90;;;;;;5052787;28;20171;-52
2021/06/30 09:08:19;;;;;;;0.90;0.60;;;20.10;99.90;;;;;;5052702;28;20397;-55
2021/06/30 09:10:45;;;;;;;2.60;0.90;;;19.90;99.90;;;;;;5052640;28;20437;-54
2021/06/30 09:13:25;;;;;;;2.37;0.60;;;19.90;99.90;;;;;;5053016;28;20997;-54
2021/06/30 09:16:01;;;;;;;0.70;0.50;;;19.80;99.90;;;;;;5053390;28;20186;-51
2021/06/30 09:18:31;;;;;;;2.40;0.50;;;19.60;99.90;;;;;;5056284;28;20960;-52
2021/06/30 09:21:24;;;;;;;0.97;0.60;;;19.80;99.90;;;;;;5078451;22;20452;-56
2021/06/30 09:24:18;;;;;;;0.70;0.60;;;19.90;99.90;;;;;;5035684;28;20932;-56
2021/06/30 09:26:50;;;;;;;2.20;0.57;;;20.10;99.90;;;;;;5036780;28;20374;-55
2021/06/30 09:29:17;;;;;;;2.30;0.83;;;20.50;99.90;;;;;;5037130;28;20818;-54
2021/06/30 09:31:48;;;;;;;0.97;0.60;;;20.40;99.90;;;;;;5036806;28;20464;-57
2021/06/30 09:34:19;;;;;;;1.00;0.60;;;20.60;99.90;;;;;;5036777;28;20569;-53
2021/06/30 09:36:47;;;;;;;0.70;0.53;;;20.50;99.90;;;;;;5036699;28;20820;-56
2021/06/30 09:39:13;;;;;;;1.47;0.50;;;20.50;99.90;;;;;;5036570;28;20452;-56
2021/06/30 09:41:45;;;;;;;0.70;0.50;;;20.40;99.90;;;;;;5036816;28;20480;-56
2021/06/30 09:44:18;;;;;;;1.30;0.60;;;20.40;99.90;;;;;;5036717;28;20410;-56
2021/06/30 09:46:45;;;;;;;0.70;0.50;;;20.40;99.90;;;;;;5036810;28;20875;-56
2021/06/30 09:49:19;;;;;;;1.30;0.90;;;20.90;99.90;;;;;;5036501;28;20460;-54
2021/06/30 09:51:47;;;;;;;1.30;0.60;;;21.50;99.90;;;;;;5036198;28;20473;-57
2021/06/30 09:54:18;;;;;;;1.67;0.60;;;21.70;99.90;;;;;;5036213;28;20956;-54
2021/06/30 09:57:00;;;;;;;0.90;0.50;;;21.60;99.90;;;;;;5036542;28;20726;-57
2021/06/30 09:59:37;;;;;;;0.90;0.60;;;21.00;99.90;;;;;;5036690;28;20501;-57
2021/06/30 10:02:18;;;;;;;1.50;0.50;;;20.20;99.90;;;;;;5036431;28;20419;-55
2021/06/30 10:04:56;;;;;;;1.00;0.50;;;20.00;99.90;;;;;;5044108;28;20730;-56
2021/06/30 10:07:30;;;;;;;0.70;0.50;;;20.00;99.90;;;;;;5056046;28;20381;-56
2021/06/30 10:09:56;;;;;;;0.80;0.50;;;20.20;99.90;;;;;;5056334;28;20715;-56
2021/06/30 10:12:27;;;;;;;0.83;0.60;;;20.30;99.90;;;;;;5056027;28;20474;-56
2021/06/30 10:14:53;;;;;;;0.80;0.50;;;20.40;99.90;;;;;;5056018;28;20153;-56
2021/06/30 10:17:21;;;;;;;1.00;0.50;;;20.50;99.90;;;;;;5055709;28;20439;-57
2021/06/30 10:19:48;;;;;;;0.90;0.60;;;21.00;99.90;;;;;;5055541;28;20551;-54
2021/06/30 10:22:15;;;;;;;2.70;0.50;;;21.00;99.90;;;;;;5043136;28;20449;-54
2021/06/30 10:24:41;;;;;;;2.17;0.87;;;20.70;99.90;;;;;;5035734;28;20403;-50
2021/06/30 10:27:08;;;;;;;0.90;0.60;;;20.80;99.90;;;;;;5034651;28;20742;-56
2021/06/30 10:29:44;;;;;;;0.80;0.50;;;20.70;99.90;;;;;;5035426;28;20507;-57
2021/06/30 10:32:12;;;;;;;1.10;0.60;;;21.10;99.90;;;;;;5035213;28;20440;-54
2021/06/30 10:34:44;;;;;;;0.90;0.70;;;21.30;99.90;;;;;;5035233;28;20398;-56
2021/06/30 10:37:17;;;;;;;1.57;0.60;;;21.70;99.90;;;;;;5034868;28;20403;-57
2021/06/30 10:39:46;;;;;;;1.80;0.70;;;21.50;99.90;;;;;;5035383;28;20434;-56
2021/06/30 10:42:26;;;;;;;1.03;0.93;;;21.50;99.90;;;;;;5035027;28;20433;-55
2021/06/30 10:44:54;;;;;;;1.20;0.87;;;21.50;99.90;;;;;;5035128;28;20444;-56
2021/06/30 10:47:41;;;;;;;1.10;0.70;;;21.50;99.90;;;;;;5035072;28;20409;-56
2021/06/30 10:50:34;;;;;;;2.30;1.00;;;21.50;99.90;;;;;;5036034;28;20779;-57
2021/06/30 10:53:02;;;;;;;3.00;0.90;;;21.40;99.90;;;;;;5034761;28;20525;-53
2021/06/30 10:55:31;;;;;;;1.07;0.73;;;21.60;99.90;;;;;;5035000;28;20775;-56
2021/06/30 10:58:12;;;;;;;1.73;0.70;;;21.50;99.90;;;;;;5035485;28;20909;-56
2021/06/30 11:01:04;;;;;;;1.10;0.80;;;21.40;99.90;;;;;;5035037;28;20410;-58
2021/06/30 11:03:48;;;;;;;1.70;0.80;;;21.20;99.90;;;;;;5035285;28;20450;-55
2021/06/30 11:06:28;;;;;;;1.43;0.80;;;20.70;99.90;;;;;;5035160;28;20393;-55
2021/06/30 11:09:07;;;;;;;1.33;0.73;;;20.40;99.90;;;;;;5034329;28;20425;-51
2021/06/30 11:11:33;;;;;;;0.70;0.60;;;20.20;99.90;;;;;;5034500;28;20504;-51
2021/06/30 11:14:18;;;;;;;1.30;0.80;;;20.30;99.90;;;;;;5034408;28;20399;-52
2021/06/30 11:16:54;;;;;;;1.53;1.10;;;20.50;99.90;;;;;;5034544;28;20723;-54
2021/06/30 11:19:20;;;;;;;0.80;0.73;;;20.80;99.90;;;;;;5034761;28;20442;-56
2021/06/30 11:21:53;;;;;;;2.30;0.70;;;21.10;99.90;;;;;;5033862;28;20828;-54
2021/06/30 11:24:41;;;;;;;1.13;0.73;;;21.50;99.90;;;;;;5043220;28;20585;-51
2021/06/30 11:29:42;;;;;;;1.10;0.63;;;21.90;99.90;;;;;;5034791;28;20409;-55
2021/06/30 11:32:09;;;;;;;1.60;0.80;;;21.80;99.90;;;;;;5034432;28;20190;-55
2021/06/30 11:34:39;;;;;;;1.00;0.70;;;22.00;99.90;;;;;;5034466;28;20771;-56
2021/06/30 11:37:07;;;;;;;0.97;0.53;;;22.40;99.90;;;;;;5034008;28;20409;-55
2021/06/30 11:39:33;;;;;;;1.37;0.67;;;22.40;99.90;;;;;;5033246;28;20468;-55
2021/06/30 11:42:01;;;;;;;0.80;0.50;;;22.60;99.90;;;;;;5034206;28;20422;-54
2021/06/30 11:44:35;;;;;;;4.20;0.80;;;22.20;99.90;;;;;;5034276;28;20468;-55
2021/06/30 11:47:04;;;;;;;1.43;0.77;;;21.70;99.90;;;;;;5034001;28;20402;-56
2021/06/30 11:49:30;;;;;;;1.10;0.90;;;21.70;99.90;;;;;;5033792;28;20410;-52
2021/06/30 11:52:05;;;;;;;1.50;0.80;;;21.90;99.90;;;;;;5033440;28;20437;-51
2021/06/30 11:54:30;;;;;;;0.90;0.77;;;21.60;99.90;;;;;;5034034;28;20413;-53
2021/06/30 11:56:56;;;;;;;1.70;1.50;;;21.50;99.90;;;;;;5033742;28;20402;-53
2021/06/30 11:59:24;;;;;;;1.33;0.80;;;21.00;99.90;;;;;;5033835;28;20194;-56
2021/06/30 12:01:51;;;;;;;2.13;1.10;;;20.30;99.90;;;;;;5033998;28;20195;-53
2021/06/30 12:04:21;;;;;;;1.53;0.93;;;19.50;99.90;;;;;;5033982;28;20394;-55
2021/06/30 12:06:59;;;;;;;1.03;0.73;;;18.80;99.90;;;;;;5033953;28;20764;-54
2021/06/30 12:09:30;;;;;;;1.40;0.83;;;19.10;99.90;;;;;;5039469;28;20389;-54
2021/06/30 12:11:57;;;;;;;1.60;0.93;;;20.20;99.90;;;;;;5033821;28;20767;-56
2021/06/30 12:14:30;;;;;;;0.80;0.70;;;21.30;99.90;;;;;;5033961;28;20493;-56
2021/06/30 12:17:05;;;;;;;1.40;0.60;;;22.20;99.90;;;;;;5033849;28;20382;-56
2021/06/30 12:19:38;;;;;;;1.10;0.80;;;22.10;99.90;;;;;;5033805;28;20527;-56
2021/06/30 12:22:34;;;;;;;3.00;1.30;;;22.40;99.90;;;;;;5043794;28;20496;-54
2021/06/30 12:25:19;;;;;;;3.13;0.90;;;22.80;99.90;;;;;;5035876;28;20412;-53
2021/06/30 12:27:50;;;;;;;1.60;0.93;;;23.50;99.90;;;;;;5053277;28;20397;-55
2021/06/30 12:30:25;;;;;;;1.13;0.60;;;24.80;99.90;;;;;;5053336;28;20464;-55
2021/06/30 12:33:00;;;;;;;0.93;0.80;;;25.40;99.90;;;;;;5053351;28;20443;-53
2021/06/30 12:35:31;;;;;;;0.90;0.80;;;25.70;99.90;;;;;;5054066;28;20381;-55
2021/06/30 12:38:06;;;;;;;1.77;1.10;;;25.20;99.90;;;;;;5053345;28;20393;-55
2021/06/30 12:40:33;;;;;;;0.80;0.60;;;24.90;99.90;;;;;;5053574;28;20428;-56
2021/06/30 12:43:04;;;;;;;1.80;0.80;;;24.20;99.90;;;;;;5035340;28;20447;-56
2021/06/30 12:45:41;;;;;;;1.00;0.80;;;24.20;99.90;;;;;;5053467;28;20402;-55
2021/06/30 12:48:12;;;;;;;0.80;0.70;;;23.90;99.90;;;;;;5053356;28;20401;-53
2021/06/30 12:50:40;;;;;;;1.00;0.60;;;23.30;99.90;;;;;;5053044;28;20802;-55
2021/06/30 12:53:09;;;;;;;0.90;0.70;;;24.60;99.90;;;;;;5053170;28;20409;-56
2021/06/30 12:55:57;;;;;;;2.80;1.13;;;25.50;99.90;;;;;;5053022;28;20901;-56
2021/06/30 12:58:24;;;;;;;0.70;0.50;;;25.40;99.90;;;;;;5052908;28;20456;-55